Current Weather

Gatwick

Gatwick, United Kingdom (EGKK)

Report from: Saturday, June 22, 2024 11:20 AM BST
Current time: Saturday, June 22, 2024 11:47 AM BST

Nearby weather – Weather history – Daily summaries
Weather forecast

Temperature18.0°C (64.4°F)
Dew point14.0°C (57.2°F)
Winds 8 kts (4.1 m/s, 9.2 mph) Vrb
Winds variableWinds variable from West-Southwest (240°) to West-Northwest (300°)
Visibility6.2 mi. (10 km)
Clouds Few clouds 2,000 ft. (610 m)
Scattered clouds 3,800 ft. (1,158 m)
Altimeter29.88 in.Hg (1012 mB)
Relative humidity77 %
Density altitude617 ft. (188 m)
Flight conditions Visual Meteorological Conditions
Raw dataEGKK 221020Z 26008KT 240V300 9999 FEW020 SCT038 18/14 Q1012
An error has occurred. This application may no longer respond until reloaded. Reload 🗙